createdAt,value
2022-12-18T00:02:08.907Z,58.59
2022-12-18T00:04:37.970Z,58.74
2022-12-18T00:07:06.284Z,59.22
2022-12-18T00:09:39.609Z,58.01
2022-12-18T00:12:29.831Z,57.93
2022-12-18T00:15:06.935Z,58.06
2022-12-18T00:17:59.084Z,57.31
2022-12-18T00:20:39.940Z,58.62
2022-12-18T00:23:22.176Z,58.92
2022-12-18T00:26:19.516Z,58.75
2022-12-18T00:29:14.986Z,58.97
2022-12-18T00:32:07.169Z,58.85
2022-12-18T00:34:41.133Z,58.11
2022-12-18T00:37:22.970Z,59.66
2022-12-18T00:39:56.063Z,58.95
2022-12-18T00:42:58.164Z,60.16
2022-12-18T00:46:00.367Z,59.06
2022-12-18T00:48:43.560Z,57.87
2022-12-18T00:51:38.716Z,58.79
2022-12-18T00:54:20.246Z,59.18
2022-12-18T00:57:11.995Z,61.29
2022-12-18T00:59:51.079Z,60.91
2022-12-18T01:02:43.324Z,59.08
2022-12-18T01:05:22.133Z,59.85
2022-12-18T01:08:04.337Z,60.97
2022-12-18T01:10:47.286Z,60.87
2022-12-18T01:13:42.474Z,59.59
2022-12-18T01:16:13.667Z,60.00
2022-12-18T01:18:46.656Z,60.29
2022-12-18T01:21:17.138Z,58.60
2022-12-18T01:23:53.739Z,58.81
2022-12-18T01:26:26.300Z,59.90
2022-12-18T01:28:55.730Z,58.83
2022-12-18T01:31:27.668Z,58.27
2022-12-18T01:33:56.817Z,58.26
2022-12-18T01:36:35.940Z,58.29
2022-12-18T01:39:07.775Z,58.23
2022-12-18T01:41:54.691Z,58.44
2022-12-18T01:45:00.921Z,58.20
2022-12-18T01:47:33.507Z,59.00
2022-12-18T01:50:21.804Z,58.78
2022-12-18T01:52:53.184Z,57.83
2022-12-18T01:55:25.310Z,58.16
2022-12-18T01:57:56.853Z,58.36
2022-12-18T02:00:29.024Z,58.47
2022-12-18T02:02:58.298Z,57.76
2022-12-18T02:06:02.330Z,57.86
2022-12-18T02:09:13.180Z,58.53
2022-12-18T02:12:54.206Z,57.88
2022-12-18T02:16:03.948Z,58.15
2022-12-18T02:18:47.975Z,58.12
2022-12-18T02:21:47.461Z,58.06
2022-12-18T02:25:00.317Z,58.55
2022-12-18T02:27:31.379Z,58.30
2022-12-18T02:30:01.522Z,58.21
2022-12-18T02:32:36.413Z,58.45
2022-12-18T02:35:07.802Z,58.56
2022-12-18T02:37:37.321Z,58.29
2022-12-18T02:40:07.434Z,57.79
2022-12-18T02:42:36.092Z,57.76
2022-12-18T02:45:07.049Z,58.18
2022-12-18T02:47:44.993Z,57.87
2022-12-18T02:50:39.825Z,57.88
2022-12-18T02:53:39.155Z,57.75
2022-12-18T02:56:48.092Z,58.03
2022-12-18T02:59:43.264Z,57.80
2022-12-18T03:03:06.583Z,57.52
2022-12-18T03:06:04.412Z,57.44
2022-12-18T03:09:19.091Z,57.38
2022-12-18T03:12:15.342Z,57.54
2022-12-18T03:14:45.249Z,58.09
2022-12-18T03:17:17.409Z,57.60
2022-12-18T03:19:47.740Z,57.88
2022-12-18T03:22:17.627Z,57.62
2022-12-18T03:24:47.137Z,57.78
2022-12-18T03:27:19.339Z,57.36
2022-12-18T03:29:51.902Z,57.48
2022-12-18T03:32:28.649Z,57.20
2022-12-18T03:34:59.600Z,57.22
2022-12-18T03:37:30.242Z,57.30
2022-12-18T03:39:59.027Z,57.22
2022-12-18T03:42:34.409Z,57.14
2022-12-18T03:45:39.001Z,57.01
2022-12-18T03:48:21.456Z,57.15
2022-12-18T03:50:59.396Z,57.79
2022-12-18T03:53:46.949Z,57.18
2022-12-18T03:56:58.474Z,57.20
2022-12-18T03:59:59.091Z,57.07
2022-12-18T04:02:44.753Z,57.60
2022-12-18T04:05:38.753Z,57.57
2022-12-18T04:08:30.440Z,57.33
2022-12-18T04:11:23.575Z,57.48
2022-12-18T04:14:17.919Z,57.69
2022-12-18T04:17:07.876Z,57.86
2022-12-18T04:19:49.946Z,57.64
2022-12-18T04:22:19.324Z,58.01
2022-12-18T04:24:48.773Z,57.83
2022-12-18T04:27:17.503Z,57.92
2022-12-18T04:29:49.928Z,57.76
2022-12-18T04:32:20.208Z,57.54
2022-12-18T04:34:50.477Z,57.61
2022-12-18T04:37:19.884Z,58.02
2022-12-18T04:39:50.164Z,57.78
2022-12-18T04:42:21.682Z,57.66
2022-12-18T04:45:06.158Z,57.48
2022-12-18T04:47:36.207Z,57.43
2022-12-18T04:50:16.798Z,57.99
2022-12-18T04:53:16.303Z,57.39
2022-12-18T04:56:06.242Z,57.62
2022-12-18T04:58:57.976Z,57.78
2022-12-18T05:02:31.954Z,57.97
2022-12-18T05:05:26.314Z,58.27
2022-12-18T05:08:10.879Z,58.43
2022-12-18T05:11:10.653Z,58.22
2022-12-18T05:13:51.312Z,57.89
2022-12-18T05:16:45.862Z,58.01
2022-12-18T05:19:25.907Z,58.44
2022-12-18T05:21:54.170Z,58.26
2022-12-18T05:24:42.227Z,58.22
2022-12-18T05:27:46.344Z,58.10
2022-12-18T05:30:18.073Z,58.05
2022-12-18T05:32:58.099Z,58.06
2022-12-18T05:35:51.915Z,58.33
2022-12-18T05:38:25.909Z,58.12
2022-12-18T05:40:55.890Z,58.03
2022-12-18T05:43:30.248Z,57.83
2022-12-18T05:46:21.578Z,57.98
2022-12-18T05:49:07.426Z,57.67
2022-12-18T05:51:37.374Z,58.25
2022-12-18T05:54:34.795Z,57.90
2022-12-18T05:57:24.080Z,58.16
2022-12-18T06:00:24.957Z,58.16
2022-12-18T06:03:34.025Z,57.78
2022-12-18T06:06:06.766Z,58.30
2022-12-18T06:08:55.180Z,58.33
2022-12-18T06:11:44.528Z,58.64
2022-12-18T06:14:33.094Z,58.71
2022-12-18T06:19:59.657Z,58.26
2022-12-18T06:22:32.021Z,58.81
2022-12-18T06:25:19.127Z,58.32
2022-12-18T06:28:27.689Z,58.90
2022-12-18T06:31:21.411Z,58.62
2022-12-18T06:34:06.049Z,58.32
2022-12-18T06:37:11.837Z,58.43
2022-12-18T06:40:06.778Z,58.45
2022-12-18T06:42:35.488Z,58.15
2022-12-18T06:45:23.245Z,58.41
2022-12-18T06:48:12.367Z,58.24
2022-12-18T06:50:59.128Z,58.10
2022-12-18T06:53:53.784Z,58.15
2022-12-18T06:56:38.751Z,57.97
2022-12-18T06:59:27.734Z,58.40
2022-12-18T07:02:16.366Z,59.47
2022-12-18T07:05:11.972Z,59.18
2022-12-18T07:08:15.917Z,58.93
2022-12-18T07:10:48.948Z,59.19
2022-12-18T07:13:25.104Z,59.28
2022-12-18T07:16:18.380Z,59.45
2022-12-18T07:19:07.076Z,59.23
2022-12-18T07:21:57.403Z,58.93
2022-12-18T07:24:51.874Z,58.74
2022-12-18T07:27:36.676Z,58.71
2022-12-18T07:30:30.765Z,58.94
2022-12-18T07:33:03.798Z,59.31
2022-12-18T07:35:46.207Z,59.19
2022-12-18T07:38:36.155Z,59.33
2022-12-18T07:41:11.953Z,59.30
2022-12-18T07:44:08.016Z,59.12
2022-12-18T07:46:55.042Z,58.76
2022-12-18T07:49:27.958Z,58.12
2022-12-18T07:52:01.721Z,59.10
2022-12-18T07:54:49.917Z,58.94
2022-12-18T07:57:50.766Z,58.66
2022-12-18T08:00:27.922Z,58.56
2022-12-18T08:03:21.783Z,58.79
2022-12-18T08:06:08.800Z,58.52
2022-12-18T08:08:53.133Z,58.78
2022-12-18T08:11:22.120Z,58.83
2022-12-18T08:16:26.847Z,58.20
2022-12-18T08:19:00.767Z,58.48
2022-12-18T08:21:35.301Z,58.22
2022-12-18T08:24:05.951Z,58.79
2022-12-18T08:26:41.740Z,58.35
2022-12-18T08:29:20.087Z,58.81
2022-12-18T08:34:39.533Z,58.03
2022-12-18T08:37:09.062Z,57.89
2022-12-18T08:39:41.174Z,57.50
2022-12-18T08:42:30.821Z,59.07
2022-12-18T08:45:02.994Z,58.21
2022-12-18T08:47:41.485Z,57.59
2022-12-18T08:50:22.720Z,55.25
2022-12-18T08:52:51.995Z,55.22
2022-12-18T08:55:22.080Z,54.82
2022-12-18T08:57:51.942Z,54.62
2022-12-18T09:00:29.359Z,53.55
2022-12-18T09:03:02.870Z,53.46
2022-12-18T09:05:31.778Z,51.75
2022-12-18T09:08:01.852Z,51.70
2022-12-18T09:10:31.349Z,52.75
2022-12-18T09:13:16.743Z,52.13
2022-12-18T09:15:51.817Z,52.42
2022-12-18T09:18:21.563Z,52.16
2022-12-18T09:20:55.874Z,50.60
2022-12-18T09:23:24.545Z,48.46
2022-12-18T09:26:03.760Z,49.38
2022-12-18T09:28:35.870Z,49.23
2022-12-18T09:31:09.240Z,49.42
2022-12-18T09:33:37.602Z,48.97
2022-12-18T09:36:10.885Z,49.00
2022-12-18T09:38:48.742Z,49.90
2022-12-18T09:41:45.710Z,51.55
2022-12-18T09:44:29.013Z,50.40
2022-12-18T09:47:09.373Z,48.50
2022-12-18T09:49:46.968Z,50.19
2022-12-18T09:52:35.784Z,48.28
2022-12-18T09:55:38.098Z,48.31
2022-12-18T09:58:18.735Z,49.05
2022-12-18T10:00:47.284Z,47.30
2022-12-18T10:03:19.901Z,47.66
2022-12-18T10:06:18.008Z,47.27
2022-12-18T10:09:03.887Z,48.12
2022-12-18T10:11:53.721Z,47.70
2022-12-18T10:14:58.799Z,46.52
2022-12-18T10:17:44.460Z,48.03
2022-12-18T10:20:36.728Z,47.83
2022-12-18T10:23:17.843Z,47.32
2022-12-18T10:26:02.860Z,45.96
2022-12-18T10:28:38.747Z,45.80
2022-12-18T10:31:20.768Z,45.12
2022-12-18T10:36:30.980Z,44.50
2022-12-18T10:39:28.529Z,44.09
2022-12-18T10:42:21.132Z,43.67
2022-12-18T10:45:12.742Z,43.41
2022-12-18T10:47:54.163Z,42.44
2022-12-18T10:51:08.582Z,43.69
2022-12-18T10:53:34.711Z,42.29
2022-12-18T10:56:11.939Z,43.74
2022-12-18T10:58:41.577Z,43.65
2022-12-18T11:01:16.626Z,43.41
2022-12-18T11:04:02.603Z,44.33
2022-12-18T11:06:31.669Z,44.42
2022-12-18T11:09:23.937Z,44.08
2022-12-18T11:12:03.673Z,43.08
2022-12-18T11:14:43.494Z,43.90
2022-12-18T11:17:26.731Z,44.57
2022-12-18T11:20:00.040Z,43.94
2022-12-18T11:22:31.478Z,44.75
2022-12-18T11:28:03.877Z,43.11
2022-12-18T11:30:43.743Z,42.19
2022-12-18T11:33:22.999Z,41.85
2022-12-18T11:35:55.817Z,41.91
2022-12-18T11:38:30.221Z,40.40
2022-12-18T11:44:43.492Z,40.36
2022-12-18T11:47:19.985Z,40.25
2022-12-18T11:49:51.668Z,42.08
2022-12-18T11:52:28.450Z,41.81
2022-12-18T11:55:05.567Z,41.50
2022-12-18T11:57:42.317Z,40.20
2022-12-18T12:00:20.212Z,40.19
2022-12-18T12:03:07.005Z,41.24
2022-12-18T12:05:58.010Z,41.20
2022-12-18T12:08:50.908Z,41.18
2022-12-18T12:11:40.356Z,41.46
2022-12-18T12:14:41.062Z,39.56
2022-12-18T12:17:24.325Z,38.35
2022-12-18T12:20:08.665Z,40.42
2022-12-18T12:23:11.849Z,40.21
2022-12-18T12:25:56.923Z,39.53
2022-12-18T12:28:52.890Z,39.31
2022-12-18T12:31:47.078Z,37.73
2022-12-18T12:34:22.769Z,37.55
2022-12-18T12:36:53.935Z,38.93
2022-12-18T12:39:29.222Z,38.63
2022-12-18T12:42:20.713Z,38.66
2022-12-18T12:45:00.786Z,38.99
2022-12-18T12:47:34.868Z,37.60
2022-12-18T12:50:08.260Z,37.29
2022-12-18T12:52:49.750Z,40.32
2022-12-18T12:55:24.718Z,39.97
2022-12-18T12:58:01.783Z,40.59
2022-12-18T13:00:40.812Z,41.24
2022-12-18T13:06:01.878Z,40.44
2022-12-18T13:08:57.165Z,40.93
2022-12-18T13:12:00.640Z,39.60
2022-12-18T13:14:37.139Z,40.95
2022-12-18T13:17:23.701Z,41.70
2022-12-18T13:20:09.133Z,40.99
2022-12-18T13:22:51.635Z,40.91
2022-12-18T13:25:30.675Z,41.53
2022-12-18T13:30:47.693Z,42.62
2022-12-18T13:33:26.043Z,43.13
2022-12-18T13:36:33.381Z,43.23
2022-12-18T13:39:23.310Z,43.54
2022-12-18T13:42:36.725Z,44.31
2022-12-18T13:51:15.879Z,44.78
2022-12-18T13:53:48.725Z,45.51
2022-12-18T13:56:32.383Z,45.33
2022-12-18T13:59:14.680Z,45.23
2022-12-18T14:01:56.330Z,45.20
2022-12-18T14:04:36.717Z,45.36
2022-12-18T14:07:15.878Z,45.34
2022-12-18T14:10:06.442Z,46.50
2022-12-18T14:13:00.392Z,46.32
2022-12-18T14:15:46.795Z,46.23
2022-12-18T14:18:21.454Z,46.66
2022-12-18T14:20:55.995Z,46.91
2022-12-18T14:23:33.974Z,47.51
2022-12-18T14:29:28.704Z,48.04
2022-12-18T14:32:17.326Z,47.97
2022-12-18T14:34:56.398Z,48.38
2022-12-18T14:37:31.624Z,48.75
2022-12-18T14:40:10.592Z,49.78
2022-12-18T14:42:49.652Z,49.63
2022-12-18T14:45:47.837Z,49.30
2022-12-18T14:48:45.650Z,49.50
2022-12-18T14:51:18.021Z,49.68
2022-12-18T14:56:29.681Z,49.80
2022-12-18T14:59:06.933Z,49.91
2022-12-18T15:01:46.794Z,50.04
2022-12-18T15:07:12.216Z,50.56
2022-12-18T15:10:24.611Z,50.37
2022-12-18T15:13:25.706Z,50.60
2022-12-18T15:16:07.688Z,51.40
2022-12-18T15:18:49.341Z,52.30
2022-12-18T15:21:19.475Z,51.56
2022-12-18T15:23:53.978Z,51.80
2022-12-18T15:26:37.898Z,51.96
2022-12-18T15:29:30.736Z,52.15
2022-12-18T15:32:06.602Z,52.41
2022-12-18T15:34:46.603Z,52.47
2022-12-18T15:37:15.664Z,52.28
2022-12-18T15:39:46.905Z,52.08
2022-12-18T15:42:35.979Z,52.27
2022-12-18T15:45:37.670Z,52.19
2022-12-18T15:48:36.766Z,51.85
2022-12-18T15:51:46.858Z,52.47
2022-12-18T15:54:53.644Z,53.12
2022-12-18T15:57:35.908Z,53.46
2022-12-18T16:00:08.586Z,53.16
2022-12-18T16:02:39.732Z,53.47
2022-12-18T16:05:15.938Z,53.10
2022-12-18T16:07:52.684Z,52.86
2022-12-18T16:10:54.625Z,52.91
2022-12-18T16:13:45.829Z,53.00
2022-12-18T16:16:40.797Z,53.09
2022-12-18T16:19:26.869Z,53.43
2022-12-18T16:25:11.855Z,53.97
2022-12-18T16:27:59.532Z,54.55
2022-12-18T16:30:37.942Z,54.87
2022-12-18T16:33:11.279Z,54.93
2022-12-18T16:36:00.611Z,54.78
2022-12-18T16:38:38.670Z,54.82
2022-12-18T16:41:36.724Z,55.37
2022-12-18T16:44:10.112Z,55.36
2022-12-18T16:46:46.640Z,54.91
2022-12-18T16:49:36.724Z,54.86
2022-12-18T16:52:08.262Z,54.88
2022-12-18T16:55:11.159Z,54.91
2022-12-18T16:58:02.022Z,55.36
2022-12-18T17:00:37.657Z,55.11
2022-12-18T17:03:14.817Z,55.06
2022-12-18T17:05:53.061Z,55.14
2022-12-18T17:08:27.048Z,54.93
2022-12-18T17:10:59.060Z,55.07
2022-12-18T17:13:50.986Z,55.54
2022-12-18T17:16:19.928Z,55.08
2022-12-18T17:18:56.942Z,55.26
2022-12-18T17:21:53.643Z,55.73
2022-12-18T17:24:33.084Z,55.71
2022-12-18T17:27:26.861Z,55.69
2022-12-18T17:29:55.466Z,56.84
2022-12-18T17:32:33.676Z,56.48
2022-12-18T17:35:12.894Z,55.99
2022-12-18T17:38:05.687Z,55.92
2022-12-18T17:40:53.640Z,55.65
2022-12-18T17:44:07.927Z,55.58
2022-12-18T17:46:56.999Z,55.75
2022-12-18T17:49:46.195Z,56.43
2022-12-18T17:52:20.809Z,56.07
2022-12-18T17:54:56.940Z,55.98
2022-12-18T17:57:25.729Z,56.28
2022-12-18T17:59:54.712Z,56.96
2022-12-18T18:02:49.034Z,56.67
2022-12-18T18:05:39.766Z,56.26
2022-12-18T18:08:09.974Z,56.52
2022-12-18T18:10:45.010Z,57.14
2022-12-18T18:13:46.919Z,56.74
2022-12-18T18:16:21.632Z,56.38
2022-12-18T18:18:52.088Z,56.71
2022-12-18T18:21:20.562Z,56.51
2022-12-18T18:24:04.648Z,56.65
2022-12-18T18:26:47.704Z,56.27
2022-12-18T18:29:20.816Z,56.73
2022-12-18T18:31:57.666Z,56.47
2022-12-18T18:34:30.165Z,56.79
2022-12-18T18:39:45.612Z,56.73
2022-12-18T18:42:17.899Z,56.75
2022-12-18T18:44:54.640Z,56.84
2022-12-18T18:47:31.122Z,57.16
2022-12-18T18:50:09.623Z,58.24
2022-12-18T18:52:40.652Z,57.77
2022-12-18T18:55:13.950Z,57.27
2022-12-18T18:57:58.871Z,57.31
2022-12-18T19:00:39.034Z,57.23
2022-12-18T19:03:10.647Z,57.08
2022-12-18T19:05:47.680Z,56.83
2022-12-18T19:08:20.686Z,56.61
2022-12-18T19:10:59.886Z,56.71
2022-12-18T19:13:37.581Z,56.65
2022-12-18T19:16:15.701Z,56.77
2022-12-18T19:19:01.325Z,56.73
2022-12-18T19:21:34.849Z,56.47
2022-12-18T19:24:03.717Z,56.30
2022-12-18T19:26:33.719Z,56.89
2022-12-18T19:29:07.892Z,56.72
2022-12-18T19:34:27.642Z,57.52
2022-12-18T19:37:00.706Z,57.24
2022-12-18T19:39:33.887Z,57.13
2022-12-18T19:42:02.580Z,56.75
2022-12-18T19:44:36.006Z,56.65
2022-12-18T19:47:12.751Z,56.67
2022-12-18T19:49:49.660Z,56.49
2022-12-18T19:52:22.724Z,56.54
2022-12-18T19:55:08.728Z,56.65
2022-12-18T19:57:52.602Z,57.14
2022-12-18T20:03:10.151Z,57.62
2022-12-18T20:05:46.209Z,57.68
2022-12-18T20:08:24.911Z,56.95
2022-12-18T20:11:09.585Z,56.63
2022-12-18T20:14:06.801Z,56.87
2022-12-18T20:16:35.294Z,57.10
2022-12-18T20:19:33.787Z,57.18
2022-12-18T20:22:19.956Z,57.02
2022-12-18T20:25:04.656Z,57.00
2022-12-18T20:27:53.810Z,57.15
2022-12-18T20:30:27.832Z,57.29
2022-12-18T20:32:56.595Z,57.79
2022-12-18T20:35:28.199Z,57.83
2022-12-18T20:38:05.552Z,57.59
2022-12-18T20:40:42.018Z,57.20
2022-12-18T20:43:13.855Z,56.91
2022-12-18T20:45:48.319Z,57.11
2022-12-18T20:48:23.578Z,56.71
2022-12-18T20:51:05.964Z,56.38
2022-12-18T20:53:35.617Z,56.89
2022-12-18T20:56:10.624Z,56.84
2022-12-18T20:58:40.290Z,56.50
2022-12-18T21:04:01.519Z,56.87
2022-12-18T21:06:35.630Z,57.25
2022-12-18T21:09:05.752Z,58.10
2022-12-18T21:11:55.455Z,57.55
2022-12-18T21:14:27.097Z,57.37
2022-12-18T21:17:02.122Z,57.45
2022-12-18T21:19:32.075Z,57.07
2022-12-18T21:22:00.754Z,57.90
2022-12-18T21:27:03.287Z,57.44
2022-12-18T21:29:33.517Z,56.92
2022-12-18T21:32:11.608Z,57.04
2022-12-18T21:34:47.461Z,57.46
2022-12-18T21:37:22.364Z,57.71
2022-12-18T21:39:50.125Z,58.21
2022-12-18T21:42:36.891Z,57.92
2022-12-18T21:45:04.936Z,57.56
2022-12-18T21:47:33.776Z,57.90
2022-12-18T21:50:07.149Z,58.18
2022-12-18T21:55:24.419Z,59.21
2022-12-18T21:57:54.226Z,59.31
2022-12-18T22:00:23.560Z,59.11
2022-12-18T22:03:13.381Z,59.73
2022-12-18T22:05:40.060Z,59.85
2022-12-18T22:08:17.273Z,58.80
2022-12-18T22:10:48.779Z,59.35
2022-12-18T22:13:17.689Z,58.67
2022-12-18T22:15:53.005Z,58.48
2022-12-18T22:18:23.413Z,58.14
2022-12-18T22:21:01.454Z,57.71
2022-12-18T22:23:31.015Z,57.71
2022-12-18T22:25:59.561Z,57.32
2022-12-18T22:28:47.263Z,57.58
2022-12-18T22:31:31.535Z,58.31
2022-12-18T22:33:59.490Z,58.18
2022-12-18T22:36:42.964Z,57.62
2022-12-18T22:39:14.726Z,57.46
2022-12-18T22:41:44.035Z,58.17
2022-12-18T22:44:12.100Z,58.62
2022-12-18T22:46:47.425Z,58.32
2022-12-18T22:49:22.180Z,58.15
2022-12-18T22:51:50.800Z,57.81
2022-12-18T22:54:18.924Z,57.83
2022-12-18T22:56:51.398Z,57.18
2022-12-18T22:59:44.376Z,57.69
2022-12-18T23:02:29.001Z,58.74
2022-12-18T23:07:58.160Z,57.79
2022-12-18T23:10:53.599Z,57.40
2022-12-18T23:13:33.161Z,57.07
2022-12-18T23:16:22.700Z,57.24
2022-12-18T23:19:16.354Z,56.94
2022-12-18T23:21:57.790Z,56.75
2022-12-18T23:24:39.865Z,57.49
2022-12-18T23:27:31.820Z,57.80
2022-12-18T23:30:12.300Z,57.51
2022-12-18T23:32:54.872Z,57.31
2022-12-18T23:35:46.714Z,57.24
2022-12-18T23:38:28.472Z,57.27
2022-12-18T23:41:14.666Z,56.79
2022-12-18T23:44:07.545Z,57.01
2022-12-18T23:47:02.637Z,57.56
2022-12-18T23:49:45.033Z,57.24
2022-12-18T23:52:29.596Z,57.37
2022-12-18T23:55:21.777Z,57.14
2022-12-18T23:58:04.783Z,57.22
